createdAt,value
2018-07-19T00:01:41.222Z,68.47
2018-07-19T00:04:09.850Z,68.74
2018-07-19T00:06:38.499Z,68.88
2018-07-19T00:09:08.932Z,69.01
2018-07-19T00:11:37.870Z,70.63
2018-07-19T00:14:06.594Z,69.99
2018-07-19T00:16:35.271Z,70.57
2018-07-19T00:19:04.001Z,70.43
2018-07-19T00:21:32.591Z,70.04
2018-07-19T00:24:01.242Z,70.03
2018-07-19T00:26:29.969Z,70.22
2018-07-19T00:28:58.630Z,70.50
2018-07-19T00:31:27.272Z,71.27
2018-07-19T00:33:55.964Z,70.14
2018-07-19T00:36:24.679Z,71.24
2018-07-19T00:38:53.368Z,71.51
2018-07-19T00:41:22.107Z,71.72
2018-07-19T00:43:50.738Z,72.92
2018-07-19T00:46:19.367Z,73.21
2018-07-19T00:48:48.055Z,74.18
2018-07-19T00:51:16.817Z,75.07
2018-07-19T00:53:45.497Z,75.12
2018-07-19T00:56:14.142Z,75.63
2018-07-19T00:58:42.827Z,77.37
2018-07-19T01:01:11.508Z,77.72
2018-07-19T01:03:40.234Z,78.03
2018-07-19T01:06:08.870Z,76.83
2018-07-19T01:08:37.543Z,77.23
2018-07-19T01:11:06.278Z,77.50
2018-07-19T01:13:34.934Z,78.22
2018-07-19T01:16:03.623Z,78.51
2018-07-19T01:18:32.258Z,78.36
2018-07-19T01:21:00.908Z,78.53
2018-07-19T01:23:29.651Z,72.94
2018-07-19T01:25:58.317Z,69.05
2018-07-19T01:28:26.972Z,66.19
2018-07-19T01:30:55.632Z,64.69
2018-07-19T01:33:24.293Z,63.11
2018-07-19T01:35:52.969Z,62.08
2018-07-19T01:38:21.606Z,61.19
2018-07-19T01:40:50.588Z,61.47
2018-07-19T01:43:19.255Z,61.35
2018-07-19T01:45:47.946Z,61.32
2018-07-19T01:48:16.594Z,60.44
2018-07-19T01:50:45.270Z,60.62
2018-07-19T01:53:13.946Z,59.89
2018-07-19T01:55:42.610Z,59.89
2018-07-19T01:58:11.285Z,59.53
2018-07-19T02:00:40.019Z,60.00
2018-07-19T02:03:08.687Z,59.07
2018-07-19T02:05:37.331Z,59.46
2018-07-19T02:08:06.063Z,58.90
2018-07-19T02:10:34.790Z,58.67
2018-07-19T02:13:03.424Z,58.98
2018-07-19T02:15:32.136Z,59.21
2018-07-19T02:18:00.845Z,59.12
2018-07-19T02:20:29.511Z,58.78
2018-07-19T02:22:58.234Z,58.61
2018-07-19T02:25:26.866Z,58.18
2018-07-19T02:27:55.547Z,58.63
2018-07-19T02:30:24.219Z,59.10
2018-07-19T02:32:52.870Z,59.14
2018-07-19T02:35:21.519Z,59.16
2018-07-19T02:37:50.160Z,60.17
2018-07-19T02:40:18.822Z,60.43
2018-07-19T02:42:47.483Z,61.20
2018-07-19T02:45:16.446Z,62.75
2018-07-19T02:47:45.111Z,65.15
2018-07-19T02:50:13.775Z,65.92
2018-07-19T02:52:42.419Z,66.31
2018-07-19T02:55:11.115Z,66.78
2018-07-19T02:57:39.789Z,66.77
2018-07-19T03:00:08.496Z,67.27
2018-07-19T03:02:37.176Z,67.51
2018-07-19T03:05:05.920Z,67.35
2018-07-19T03:07:34.667Z,67.87
2018-07-19T03:10:03.399Z,67.75
2018-07-19T03:12:32.079Z,68.37
2018-07-19T03:15:00.723Z,69.45
2018-07-19T03:17:29.401Z,69.91
2018-07-19T03:19:58.027Z,70.42
2018-07-19T03:22:26.706Z,70.22
2018-07-19T03:24:55.338Z,71.09
2018-07-19T03:27:23.988Z,71.32
2018-07-19T03:29:52.614Z,71.14
2018-07-19T03:32:21.275Z,71.98
2018-07-19T03:34:49.942Z,71.93
2018-07-19T03:37:18.683Z,72.37
2018-07-19T03:39:47.367Z,72.95
2018-07-19T03:42:16.094Z,73.92
2018-07-19T03:44:44.876Z,74.71
2018-07-19T03:47:13.626Z,74.52
2018-07-19T03:49:42.267Z,74.76
2018-07-19T03:52:10.955Z,74.31
2018-07-19T03:54:39.638Z,73.59
2018-07-19T03:57:08.379Z,72.69
2018-07-19T03:59:37.026Z,73.11
2018-07-19T04:02:05.690Z,73.11
2018-07-19T04:04:34.363Z,72.83
2018-07-19T04:07:03.051Z,72.73
2018-07-19T04:09:31.814Z,73.40
2018-07-19T04:12:00.487Z,74.54
2018-07-19T04:14:29.185Z,74.89
2018-07-19T04:16:57.838Z,75.07
2018-07-19T04:19:26.575Z,74.43
2018-07-19T04:21:55.219Z,74.66
2018-07-19T04:24:23.870Z,74.03
2018-07-19T04:26:52.550Z,74.29
2018-07-19T04:29:22.410Z,73.64
2018-07-19T04:31:51.178Z,73.61
2018-07-19T04:34:20.005Z,73.35
2018-07-19T04:36:48.735Z,73.88
2018-07-19T04:39:17.379Z,73.93
2018-07-19T04:41:46.003Z,74.39
2018-07-19T04:44:14.642Z,74.95
2018-07-19T04:46:43.379Z,73.95
2018-07-19T04:49:12.032Z,74.25
2018-07-19T04:51:40.674Z,74.11
2018-07-19T04:54:09.389Z,74.79
2018-07-19T04:56:38.043Z,74.98
2018-07-19T04:59:06.701Z,74.67
2018-07-19T05:01:35.351Z,74.90
2018-07-19T05:04:04.135Z,74.64
2018-07-19T05:06:32.792Z,75.00
2018-07-19T05:09:01.467Z,75.41
2018-07-19T05:11:30.091Z,74.47
2018-07-19T05:13:58.733Z,74.26
2018-07-19T05:16:27.387Z,75.43
2018-07-19T05:18:56.081Z,75.04
2018-07-19T05:21:24.767Z,75.20
2018-07-19T05:23:53.468Z,74.37
2018-07-19T05:26:22.112Z,75.21
2018-07-19T05:28:50.802Z,74.45
2018-07-19T05:31:19.498Z,74.19
2018-07-19T05:33:48.146Z,75.03
2018-07-19T05:36:16.852Z,75.18
2018-07-19T05:38:45.514Z,75.55
2018-07-19T05:41:14.163Z,74.79
2018-07-19T05:43:42.789Z,75.19
2018-07-19T05:46:11.485Z,74.59
2018-07-19T05:48:40.140Z,75.35
2018-07-19T05:51:09.264Z,74.91
2018-07-19T05:53:37.888Z,75.40
2018-07-19T05:56:06.650Z,75.09
2018-07-19T05:58:35.328Z,76.10
2018-07-19T06:01:04.036Z,75.53
2018-07-19T06:03:32.801Z,76.68
2018-07-19T06:06:01.484Z,75.91
2018-07-19T06:08:30.147Z,76.61
2018-07-19T06:10:58.846Z,76.15
2018-07-19T06:13:27.531Z,75.55
2018-07-19T06:15:56.176Z,75.65
2018-07-19T06:18:24.869Z,75.91
2018-07-19T06:20:53.529Z,76.86
2018-07-19T06:23:22.178Z,76.69
2018-07-19T06:25:50.874Z,75.95
2018-07-19T06:28:19.536Z,76.67
2018-07-19T06:30:48.181Z,76.20
2018-07-19T06:33:16.929Z,76.93
2018-07-19T06:35:45.569Z,76.29
2018-07-19T06:38:14.220Z,76.85
2018-07-19T06:40:42.933Z,76.34
2018-07-19T06:43:11.706Z,76.29
2018-07-19T06:45:40.671Z,76.50
2018-07-19T06:48:09.349Z,76.17
2018-07-19T06:50:38.039Z,75.94
2018-07-19T06:53:07.067Z,76.36
2018-07-19T06:55:36.219Z,76.33
2018-07-19T06:58:05.139Z,76.00
2018-07-19T07:00:33.789Z,75.85
2018-07-19T07:03:02.462Z,75.23
2018-07-19T07:05:31.091Z,75.15
2018-07-19T07:07:59.747Z,74.92
2018-07-19T07:10:28.383Z,74.52
2018-07-19T07:12:57.039Z,74.79
2018-07-19T07:15:25.771Z,75.41
2018-07-19T07:17:54.451Z,76.01
2018-07-19T07:20:23.070Z,76.19
2018-07-19T07:22:51.743Z,76.12
2018-07-19T07:25:20.372Z,75.56
2018-07-19T07:27:49.047Z,75.47
2018-07-19T07:30:17.743Z,75.15
2018-07-19T07:32:46.396Z,74.30
2018-07-19T07:35:15.063Z,73.97
2018-07-19T07:37:43.696Z,73.76
2018-07-19T07:40:12.386Z,74.58
2018-07-19T07:42:41.048Z,73.02
2018-07-19T07:45:09.721Z,72.50
2018-07-19T07:47:38.370Z,72.11
2018-07-19T07:50:07.045Z,71.23
2018-07-19T07:52:35.686Z,71.29
2018-07-19T07:55:04.699Z,71.42
2018-07-19T07:57:33.390Z,69.46
2018-07-19T08:00:02.060Z,69.21
2018-07-19T08:02:30.783Z,69.81
2018-07-19T08:04:59.443Z,69.67
2018-07-19T08:07:28.093Z,71.21
2018-07-19T08:09:56.753Z,70.33
2018-07-19T08:12:25.413Z,70.91
2018-07-19T08:14:54.090Z,70.02
2018-07-19T08:17:22.866Z,71.08
2018-07-19T08:19:51.551Z,71.68
2018-07-19T08:22:20.278Z,72.15
2018-07-19T08:24:48.938Z,72.51
2018-07-19T08:27:17.614Z,73.61
2018-07-19T08:29:46.223Z,73.97
2018-07-19T08:32:14.896Z,73.72
2018-07-19T08:34:43.557Z,74.45
2018-07-19T08:37:12.217Z,74.91
2018-07-19T08:39:40.961Z,74.11
2018-07-19T08:42:09.648Z,74.19
2018-07-19T08:44:38.377Z,74.52
2018-07-19T08:47:07.220Z,73.79
2018-07-19T08:49:35.841Z,74.59
2018-07-19T08:52:04.498Z,74.60
2018-07-19T08:54:33.154Z,74.02
2018-07-19T08:57:01.806Z,74.21
2018-07-19T08:59:30.440Z,74.30
2018-07-19T09:01:59.080Z,73.76
2018-07-19T09:04:27.802Z,73.42
2018-07-19T09:06:56.450Z,73.37
2018-07-19T09:09:25.133Z,73.51
2018-07-19T09:11:53.862Z,72.76
2018-07-19T09:14:22.635Z,72.33
2018-07-19T09:16:51.865Z,72.91
2018-07-19T09:19:20.569Z,72.74
2018-07-19T09:21:49.259Z,71.07
2018-07-19T09:24:17.847Z,70.90
2018-07-19T09:26:46.506Z,69.88
2018-07-19T09:29:15.139Z,69.58
2018-07-19T09:31:43.834Z,68.69
2018-07-19T09:34:12.499Z,70.00
2018-07-19T09:36:41.251Z,68.72
2018-07-19T09:39:12.002Z,68.73
2018-07-19T09:41:41.366Z,67.92
2018-07-19T09:44:10.045Z,66.52
2018-07-19T09:46:38.867Z,67.13
2018-07-19T09:49:07.568Z,67.87
2018-07-19T09:51:36.307Z,67.82
2018-07-19T09:54:05.026Z,68.82
2018-07-19T09:56:33.724Z,67.84
2018-07-19T09:59:02.477Z,67.30
2018-07-19T10:01:31.146Z,67.50
2018-07-19T10:03:59.773Z,65.45
2018-07-19T10:06:43.199Z,64.30
2018-07-19T10:09:11.929Z,64.81
2018-07-19T10:11:40.618Z,66.29
2018-07-19T10:14:09.361Z,67.02
2018-07-19T10:16:38.108Z,68.94
2018-07-19T10:19:06.951Z,70.23
2018-07-19T10:21:35.801Z,70.22
2018-07-19T10:24:04.584Z,71.80
2018-07-19T10:26:33.320Z,70.78
2018-07-19T10:29:01.965Z,72.42
2018-07-19T10:31:30.627Z,72.00
2018-07-19T10:33:59.283Z,72.39
2018-07-19T10:36:27.967Z,72.24
2018-07-19T10:38:56.675Z,73.24
2018-07-19T10:41:25.363Z,72.69
2018-07-19T10:43:54.315Z,72.60
2018-07-19T10:46:22.989Z,72.93
2018-07-19T10:48:51.688Z,73.40
2018-07-19T10:51:20.304Z,73.36
2018-07-19T10:53:48.940Z,73.84
2018-07-19T10:56:17.619Z,74.39
2018-07-19T10:58:46.429Z,73.89
2018-07-19T11:01:15.067Z,74.62
2018-07-19T11:03:43.804Z,74.47
2018-07-19T11:06:12.439Z,73.77
2018-07-19T11:08:41.060Z,74.43
2018-07-19T11:11:09.744Z,73.50
2018-07-19T11:13:39.294Z,73.27
2018-07-19T11:16:07.993Z,72.84
2018-07-19T11:18:36.640Z,72.99
2018-07-19T11:21:05.305Z,72.89
2018-07-19T11:23:33.963Z,71.68
2018-07-19T11:26:02.731Z,71.69
2018-07-19T11:28:31.366Z,71.75
2018-07-19T11:31:00.031Z,70.51
2018-07-19T11:33:28.708Z,71.72
2018-07-19T11:35:57.382Z,71.14
2018-07-19T11:38:26.004Z,70.49
2018-07-19T11:40:54.633Z,70.91
2018-07-19T11:43:23.323Z,71.17
2018-07-19T11:45:51.992Z,71.43
2018-07-19T11:48:21.383Z,71.51
2018-07-19T11:50:50.077Z,70.62
2018-07-19T11:53:18.740Z,71.13
2018-07-19T11:55:47.428Z,71.21
2018-07-19T11:58:16.088Z,71.08
2018-07-19T12:00:44.744Z,71.71
2018-07-19T12:03:13.454Z,71.00
2018-07-19T12:05:42.117Z,70.77
2018-07-19T12:08:10.888Z,71.13
2018-07-19T12:10:40.300Z,70.52
2018-07-19T12:13:09.076Z,70.82
2018-07-19T12:15:37.700Z,71.38
2018-07-19T12:18:06.358Z,70.92
2018-07-19T12:20:35.088Z,70.66
2018-07-19T12:23:03.705Z,71.01
2018-07-19T12:25:32.341Z,70.71
2018-07-19T12:28:00.974Z,70.67
2018-07-19T12:30:29.631Z,71.05
2018-07-19T12:32:58.318Z,70.86
2018-07-19T12:35:26.971Z,71.18
2018-07-19T12:37:55.618Z,72.22
2018-07-19T12:40:24.264Z,72.31
2018-07-19T12:42:53.137Z,72.70
2018-07-19T12:45:21.891Z,72.66
2018-07-19T12:47:50.575Z,72.22
2018-07-19T12:50:19.252Z,71.67
2018-07-19T12:52:48.001Z,72.32
2018-07-19T12:55:16.728Z,72.63
2018-07-19T12:57:45.417Z,73.54
2018-07-19T13:00:14.275Z,72.87
2018-07-19T13:02:42.906Z,73.94
2018-07-19T13:05:11.505Z,73.35
2018-07-19T13:07:40.205Z,73.40
2018-07-19T13:10:08.953Z,73.17
2018-07-19T13:12:37.617Z,73.44
2018-07-19T13:15:07.011Z,72.42
2018-07-19T13:17:35.641Z,72.71
2018-07-19T13:20:04.806Z,72.57
2018-07-19T13:22:33.540Z,72.48
2018-07-19T13:25:02.313Z,73.64
2018-07-19T13:27:31.932Z,73.17
2018-07-19T13:30:00.594Z,73.08
2018-07-19T13:32:29.249Z,73.67
2018-07-19T13:34:57.954Z,74.31
2018-07-19T13:37:26.748Z,74.34
2018-07-19T13:39:55.492Z,74.88
2018-07-19T13:42:24.127Z,74.79
2018-07-19T13:44:52.763Z,75.35
2018-07-19T13:47:21.450Z,75.12
2018-07-19T13:49:50.096Z,75.40
2018-07-19T13:52:24.822Z,75.10
2018-07-19T13:54:53.456Z,75.51
2018-07-19T13:57:22.117Z,75.49
2018-07-19T13:59:50.862Z,76.41
2018-07-19T14:02:19.528Z,75.65
2018-07-19T14:04:48.233Z,77.00
2018-07-19T14:07:16.922Z,76.85
2018-07-19T14:09:46.119Z,76.36
2018-07-19T14:12:14.769Z,76.36
2018-07-19T14:14:43.491Z,77.17
2018-07-19T14:17:12.263Z,76.57
2018-07-19T14:19:41.017Z,76.76
2018-07-19T14:22:09.704Z,77.13
2018-07-19T14:24:38.376Z,77.04
2018-07-19T14:27:07.244Z,77.06
2018-07-19T14:29:35.990Z,78.21
2018-07-19T14:32:04.748Z,77.32
2018-07-19T14:34:34.537Z,77.29
2018-07-19T14:37:03.208Z,76.89
2018-07-19T14:39:31.975Z,77.50
2018-07-19T14:42:00.686Z,76.61
2018-07-19T14:44:29.345Z,76.81
2018-07-19T14:46:58.083Z,76.66
2018-07-19T14:49:26.736Z,77.53
2018-07-19T14:51:55.383Z,77.32
2018-07-19T14:54:24.108Z,77.33
2018-07-19T14:56:52.772Z,78.11
2018-07-19T14:59:21.508Z,77.75
2018-07-19T15:01:50.182Z,77.88
2018-07-19T15:04:18.870Z,78.21
2018-07-19T15:06:47.648Z,77.39
2018-07-19T15:09:16.321Z,77.86
2018-07-19T15:11:45.041Z,77.19
2018-07-19T15:14:13.749Z,77.71
2018-07-19T15:16:42.462Z,77.45
2018-07-19T15:19:11.125Z,78.17
2018-07-19T15:21:39.745Z,78.74
2018-07-19T15:24:08.444Z,77.47
2018-07-19T15:26:37.117Z,78.45
2018-07-19T15:29:05.778Z,78.09
2018-07-19T15:31:34.438Z,79.21
2018-07-19T15:34:03.187Z,78.87
2018-07-19T15:36:31.875Z,79.13
2018-07-19T15:39:00.549Z,78.78
2018-07-19T15:41:29.246Z,78.96
2018-07-19T15:43:57.948Z,79.67
2018-07-19T15:46:26.580Z,79.92
2018-07-19T15:48:55.279Z,80.19
2018-07-19T15:51:23.921Z,80.70
2018-07-19T15:53:52.816Z,81.77
2018-07-19T15:56:21.540Z,81.86
2018-07-19T15:58:50.201Z,81.50
2018-07-19T16:01:19.014Z,81.60
2018-07-19T16:03:47.656Z,81.59
2018-07-19T16:06:16.403Z,82.29
2018-07-19T16:08:45.073Z,81.97
2018-07-19T16:11:13.728Z,82.19
2018-07-19T16:13:42.415Z,81.99
2018-07-19T16:16:11.153Z,82.90
2018-07-19T16:18:39.833Z,81.98
2018-07-19T16:21:08.509Z,81.98
2018-07-19T16:23:37.145Z,82.83
2018-07-19T16:26:05.921Z,82.90
2018-07-19T16:28:34.629Z,82.40
2018-07-19T16:31:03.259Z,82.91
2018-07-19T16:33:31.909Z,83.10
2018-07-19T16:36:00.574Z,83.11
2018-07-19T16:38:29.302Z,82.38
2018-07-19T16:40:57.991Z,83.10
2018-07-19T16:43:26.686Z,82.60
2018-07-19T16:45:55.325Z,82.68
2018-07-19T16:48:24.085Z,82.59
2018-07-19T16:50:52.735Z,83.36
2018-07-19T16:53:21.348Z,83.07
2018-07-19T16:55:49.982Z,83.69
2018-07-19T16:58:18.732Z,83.26
2018-07-19T17:00:47.390Z,83.27
2018-07-19T17:03:16.079Z,83.51
2018-07-19T17:05:44.838Z,83.75
2018-07-19T17:08:13.464Z,84.04
2018-07-19T17:10:42.112Z,83.85
2018-07-19T17:13:10.845Z,83.75
2018-07-19T17:15:39.493Z,83.51
2018-07-19T17:18:08.237Z,84.54
2018-07-19T17:20:36.950Z,83.75
2018-07-19T17:23:05.720Z,84.93
2018-07-19T17:25:34.366Z,84.06
2018-07-19T17:28:03.110Z,84.32
2018-07-19T17:30:32.394Z,85.04
2018-07-19T17:33:01.014Z,85.01
2018-07-19T17:35:29.738Z,84.98
2018-07-19T17:37:58.533Z,85.08
2018-07-19T17:40:27.417Z,85.51
2018-07-19T17:42:56.297Z,85.86
2018-07-19T17:45:25.057Z,85.50
2018-07-19T17:47:53.666Z,85.52
2018-07-19T17:50:22.408Z,85.75
2018-07-19T17:52:51.072Z,85.71
2018-07-19T17:55:19.718Z,86.06
2018-07-19T17:57:48.352Z,86.66
2018-07-19T18:00:17.030Z,86.36
2018-07-19T18:02:45.682Z,87.32
2018-07-19T18:05:14.356Z,87.48
2018-07-19T18:07:43.056Z,87.45
2018-07-19T18:10:12.154Z,87.39
2018-07-19T18:12:40.781Z,87.17
2018-07-19T18:15:09.531Z,87.48
2018-07-19T18:17:38.204Z,86.95
2018-07-19T18:20:07.413Z,87.10
2018-07-19T18:22:36.124Z,87.18
2018-07-19T18:25:05.295Z,87.82
2018-07-19T18:27:34.069Z,87.03
2018-07-19T18:30:06.010Z,87.05
2018-07-19T18:32:34.635Z,87.17
2018-07-19T18:35:03.461Z,87.49
2018-07-19T18:37:32.079Z,87.33
2018-07-19T18:40:00.787Z,87.64
2018-07-19T18:42:29.552Z,87.27
2018-07-19T18:44:58.255Z,87.05
2018-07-19T18:47:26.952Z,87.52
2018-07-19T18:49:55.631Z,87.83
2018-07-19T18:52:24.282Z,87.61
2018-07-19T18:54:52.935Z,88.14
2018-07-19T18:57:21.577Z,88.62
2018-07-19T18:59:50.267Z,88.69
2018-07-19T19:02:18.955Z,88.99
2018-07-19T19:04:47.645Z,88.60
2018-07-19T19:07:16.364Z,88.14
2018-07-19T19:09:45.025Z,88.34
2018-07-19T19:12:13.833Z,88.08
2018-07-19T19:14:42.518Z,88.39
2018-07-19T19:17:11.225Z,88.40
2018-07-19T19:19:39.950Z,87.84
2018-07-19T19:22:08.592Z,87.91
2018-07-19T19:24:37.234Z,87.77
2018-07-19T19:27:06.356Z,87.87
2018-07-19T19:29:34.987Z,88.09
2018-07-19T19:32:03.757Z,88.94
2018-07-19T19:34:32.386Z,88.09
2018-07-19T19:37:01.077Z,88.17
2018-07-19T19:39:29.798Z,88.64
2018-07-19T19:41:58.538Z,87.96
2018-07-19T19:44:27.198Z,88.12
2018-07-19T19:46:55.848Z,88.70
2018-07-19T19:49:24.554Z,88.33
2018-07-19T19:51:53.237Z,87.75
2018-07-19T19:54:21.924Z,88.82
2018-07-19T19:56:50.602Z,88.56
2018-07-19T19:59:19.253Z,88.28
2018-07-19T20:01:47.913Z,87.53
2018-07-19T20:04:16.602Z,87.89
2018-07-19T20:06:45.267Z,87.79
2018-07-19T20:09:13.885Z,88.25
2018-07-19T20:11:42.595Z,87.62
2018-07-19T20:14:11.221Z,87.19
2018-07-19T20:16:39.963Z,88.03
2018-07-19T20:19:08.604Z,88.34
2018-07-19T20:21:37.266Z,87.85
2018-07-19T20:24:05.926Z,88.04
2018-07-19T20:26:34.672Z,87.23
2018-07-19T20:29:03.386Z,87.04
2018-07-19T20:31:32.030Z,87.70
2018-07-19T20:34:00.660Z,87.79
2018-07-19T20:36:29.339Z,87.91
2018-07-19T20:38:58.335Z,87.62
2018-07-19T20:41:26.993Z,87.85
2018-07-19T20:43:55.621Z,87.17
2018-07-19T20:46:24.329Z,87.51
2018-07-19T20:48:53.065Z,87.66
2018-07-19T20:51:21.706Z,87.40
2018-07-19T20:53:50.434Z,87.44
2018-07-19T20:56:19.339Z,87.51
2018-07-19T20:58:48.036Z,87.67
2018-07-19T21:01:16.763Z,87.49
2018-07-19T21:03:45.386Z,87.43
2018-07-19T21:06:14.036Z,87.49
2018-07-19T21:08:42.646Z,87.41
2018-07-19T21:11:11.266Z,87.16
2018-07-19T21:13:39.894Z,86.71
2018-07-19T21:16:08.745Z,87.06
2018-07-19T21:18:37.378Z,87.50
2018-07-19T21:21:06.095Z,87.38
2018-07-19T21:23:35.076Z,87.39
2018-07-19T21:26:03.825Z,87.46
2018-07-19T21:28:32.418Z,86.97
2018-07-19T21:31:01.056Z,87.40
2018-07-19T21:33:29.699Z,87.35
2018-07-19T21:35:58.394Z,87.57
2018-07-19T21:38:27.058Z,88.14
2018-07-19T21:40:55.709Z,87.98
2018-07-19T21:43:24.327Z,87.60
2018-07-19T21:45:52.970Z,88.95
2018-07-19T21:48:21.619Z,88.83
2018-07-19T21:50:50.250Z,88.14
2018-07-19T21:53:18.915Z,88.84
2018-07-19T21:55:47.550Z,88.57
2018-07-19T21:58:16.226Z,88.07
2018-07-19T22:00:50.013Z,88.86
2018-07-19T22:03:18.734Z,88.74
2018-07-19T22:05:47.366Z,88.43
2018-07-19T22:08:16.039Z,87.68
2018-07-19T22:10:44.670Z,87.48
2018-07-19T22:13:13.312Z,88.11
2018-07-19T22:15:42.017Z,87.65
2018-07-19T22:18:10.641Z,87.87
2018-07-19T22:20:39.340Z,87.76
2018-07-19T22:23:08.032Z,87.51
2018-07-19T22:25:36.867Z,87.96
2018-07-19T22:28:05.748Z,87.54
2018-07-19T22:30:34.540Z,87.62
2018-07-19T22:33:03.302Z,87.04
2018-07-19T22:35:32.852Z,87.48
2018-07-19T22:38:01.507Z,86.27
2018-07-19T22:40:30.204Z,87.21
2018-07-19T22:42:58.828Z,87.56
2018-07-19T22:45:27.529Z,87.83
2018-07-19T22:47:56.207Z,87.79
2018-07-19T22:50:24.815Z,88.11
2018-07-19T22:52:53.606Z,87.55
2018-07-19T22:55:22.190Z,87.80
2018-07-19T22:57:50.833Z,88.71
2018-07-19T23:00:19.538Z,88.05
2018-07-19T23:02:48.175Z,88.27
2018-07-19T23:05:16.855Z,88.61
2018-07-19T23:07:45.506Z,88.79
2018-07-19T23:10:14.225Z,89.18
2018-07-19T23:12:42.875Z,89.48
2018-07-19T23:15:11.503Z,89.52
2018-07-19T23:17:40.107Z,88.62
2018-07-19T23:20:08.839Z,88.71
2018-07-19T23:22:37.482Z,89.20
2018-07-19T23:25:06.143Z,89.06
2018-07-19T23:27:34.835Z,88.37
2018-07-19T23:30:05.271Z,88.31
2018-07-19T23:32:33.994Z,88.69
2018-07-19T23:35:02.717Z,88.57
2018-07-19T23:37:34.619Z,88.50
2018-07-19T23:40:09.405Z,88.60
2018-07-19T23:42:42.897Z,89.48
2018-07-19T23:45:16.844Z,88.90
2018-07-19T23:47:45.936Z,89.58
2018-07-19T23:50:14.602Z,88.96
2018-07-19T23:52:43.257Z,89.61
2018-07-19T23:55:11.874Z,88.88
2018-07-19T23:57:40.488Z,89.31
